createdAt,value
2024-04-13T00:01:36.241Z,90.45
2024-04-13T00:07:56.207Z,90.33
2024-04-13T00:14:18.282Z,90.54
2024-04-13T00:20:38.201Z,90.69
2024-04-13T00:27:00.237Z,91
2024-04-13T00:33:20.366Z,91.62
2024-04-13T00:39:42.268Z,91.27
2024-04-13T00:46:02.222Z,92.26
2024-04-13T00:52:24.243Z,92.46
2024-04-13T00:58:44.229Z,92.54
2024-04-13T01:05:06.253Z,92.22
2024-04-13T01:11:26.282Z,92.28
2024-04-13T01:17:48.420Z,92.5
2024-04-13T01:24:08.295Z,92.36
2024-04-13T01:30:30.293Z,92.31
2024-04-13T01:36:50.279Z,92.8
2024-04-13T01:43:12.235Z,93.01
2024-04-13T01:49:32.234Z,92.72
2024-04-13T01:55:54.223Z,93.04
2024-04-13T02:02:14.304Z,93.04
2024-04-13T02:08:36.310Z,92.89
2024-04-13T02:14:56.283Z,92.66
2024-04-13T02:21:18.214Z,92.68
2024-04-13T02:27:38.318Z,92.52
2024-04-13T02:34:00.241Z,92.59
2024-04-13T02:40:20.252Z,92.93
2024-04-13T02:46:42.255Z,93.14
2024-04-13T02:53:02.252Z,93.2
2024-04-13T02:59:24.235Z,93.67
2024-04-13T03:05:44.281Z,93.52
2024-04-13T03:12:06.275Z,93.69
2024-04-13T03:18:26.287Z,93.47
2024-04-13T03:34:52.738Z,93.8
2024-04-13T03:41:12.200Z,93.66
2024-04-13T03:47:34.323Z,93.76
2024-04-13T03:53:54.214Z,94.06
2024-04-13T04:00:16.326Z,94.35
2024-04-13T04:06:38.760Z,94.45
2024-04-13T04:12:58.240Z,94.52
2024-04-13T04:19:18.568Z,94.43
2024-04-13T04:25:40.210Z,94.45
2024-04-13T04:32:00.297Z,94.19
2024-04-13T04:38:22.218Z,94
2024-04-13T04:44:42.246Z,94.17
2024-04-13T04:51:04.260Z,94.08
2024-04-13T04:57:24.214Z,94.1
2024-04-13T05:03:46.330Z,93.95
2024-04-13T05:10:06.284Z,93.76
2024-04-13T05:16:28.225Z,93.25
2024-04-13T05:22:48.250Z,93.13
2024-04-13T05:29:10.254Z,93.35
2024-04-13T05:35:30.419Z,93.4
2024-04-13T05:41:52.242Z,93.59
2024-04-13T05:48:12.329Z,93.14
2024-04-13T05:54:34.271Z,93.31
2024-04-13T06:00:54.318Z,93.18
2024-04-13T06:07:16.233Z,92.71
2024-04-13T06:13:36.306Z,92.83
2024-04-13T06:19:58.215Z,92.79
2024-04-13T06:26:18.237Z,92.59
2024-04-13T06:32:40.316Z,91.98
2024-04-13T06:39:00.230Z,91.64
2024-04-13T06:45:22.269Z,90.92
2024-04-13T06:51:42.350Z,90.18
2024-04-13T06:58:04.247Z,89.63
2024-04-13T07:04:24.307Z,89.23
2024-04-13T07:10:46.233Z,88.28
2024-04-13T07:17:06.222Z,87.36
2024-04-13T07:23:28.241Z,87.45
2024-04-13T07:29:48.236Z,86.75
2024-04-13T07:36:10.252Z,86.23
2024-04-13T07:42:30.253Z,85.99
2024-04-13T07:48:52.322Z,85.28
2024-04-13T07:55:12.205Z,84.26
2024-04-13T08:01:34.272Z,83.19
2024-04-13T08:07:54.209Z,82.61
2024-04-13T08:14:16.705Z,81.91
2024-04-13T08:20:36.249Z,80.76
2024-04-13T08:26:58.200Z,79.5
2024-04-13T08:33:18.297Z,74.85
2024-04-13T08:39:40.253Z,71.73
2024-04-13T08:56:49.206Z,68.06
2024-04-13T09:03:11.262Z,68.4
2024-04-13T09:09:31.282Z,66.49
2024-04-13T09:15:53.231Z,63.53
2024-04-13T09:22:13.225Z,63.62
2024-04-13T09:28:35.211Z,63.85
2024-04-13T09:34:55.235Z,63
2024-04-13T09:41:17.251Z,61.46
2024-04-13T09:47:37.244Z,61.12
2024-04-13T09:53:59.242Z,59.31
2024-04-13T10:00:19.218Z,58.71
2024-04-13T10:06:41.362Z,57.02
2024-04-13T10:13:02.458Z,56.55
2024-04-13T10:19:23.204Z,56.01
2024-04-13T10:25:43.219Z,54.74
2024-04-13T10:32:05.220Z,52.77
2024-04-13T10:38:25.205Z,53.09
2024-04-13T10:44:47.240Z,52.81
2024-04-13T10:51:07.233Z,50.68
2024-04-13T10:57:29.253Z,48.57
2024-04-13T11:03:49.252Z,47.96
2024-04-13T11:10:11.235Z,50.61
2024-04-13T11:16:31.222Z,50.18
2024-04-13T11:22:53.203Z,50.7
2024-04-13T11:29:13.237Z,49.61
2024-04-13T11:35:35.228Z,47.66
2024-04-13T11:41:55.206Z,46.43
2024-04-13T11:48:17.371Z,45.66
2024-04-13T11:54:37.262Z,45.23
2024-04-13T12:00:59.253Z,43.54
2024-04-13T12:07:19.219Z,43.44
2024-04-13T12:13:41.214Z,42.6
2024-04-13T12:20:01.223Z,40.71
2024-04-13T12:26:23.224Z,41.23
2024-04-13T12:32:43.271Z,42.83
2024-04-13T12:39:05.220Z,41.62
2024-04-13T12:45:25.259Z,41.08
2024-04-13T12:51:47.284Z,41.02
2024-04-13T12:58:07.272Z,40.19
2024-04-13T13:04:29.270Z,42.86
2024-04-13T13:10:49.206Z,37.88
2024-04-13T13:17:12.063Z,35.41
2024-04-13T13:23:30.240Z,34.03
2024-04-13T13:29:52.219Z,34.33
2024-04-13T13:36:12.247Z,33.29
2024-04-13T13:42:34.304Z,33.25
2024-04-13T13:48:54.281Z,33.41
2024-04-13T13:55:16.214Z,31.63
2024-04-13T14:01:36.280Z,32.1
2024-04-13T14:07:58.235Z,31.65
2024-04-13T14:14:18.199Z,30.6
2024-04-13T14:20:40.262Z,29.9
2024-04-13T14:37:03.204Z,31.41
2024-04-13T14:43:22.189Z,29.74
2024-04-13T14:49:44.208Z,29.82
2024-04-13T14:56:04.247Z,29.89
2024-04-13T15:02:26.218Z,29.54
2024-04-13T15:08:46.226Z,29.31
2024-04-13T15:15:08.226Z,29.4
2024-04-13T15:21:28.223Z,29.39
2024-04-13T15:27:50.292Z,30.18
2024-04-13T15:34:10.220Z,30.12
2024-04-13T15:40:32.227Z,31.16
2024-04-13T15:46:52.218Z,31.08
2024-04-13T15:53:14.223Z,31.11
2024-04-13T15:59:34.209Z,31.26
2024-04-13T16:05:56.199Z,32.44
2024-04-13T16:12:15.233Z,32.08
2024-04-13T16:18:37.251Z,31.83
2024-04-13T16:24:57.228Z,30.96
2024-04-13T16:31:19.221Z,32.11
2024-04-13T16:37:39.196Z,33.6
2024-04-13T16:44:01.218Z,33.88
2024-04-13T16:50:21.219Z,34.64
2024-04-13T16:56:43.206Z,34.37
2024-04-13T17:03:03.207Z,35.3
2024-04-13T17:09:25.223Z,36.05
2024-04-13T17:15:45.269Z,36.99
2024-04-13T17:22:07.204Z,37.76
2024-04-13T17:28:27.227Z,38.54
2024-04-13T17:34:49.227Z,39.36
2024-04-13T17:41:09.201Z,39.62
2024-04-13T17:47:31.279Z,40.44
2024-04-13T17:53:51.201Z,41.13
2024-04-13T18:00:13.231Z,41.98
2024-04-13T18:06:33.274Z,42.78
2024-04-13T18:12:55.262Z,43.86
2024-04-13T18:19:15.246Z,44.54
2024-04-13T18:25:37.236Z,45.18
2024-04-13T18:31:57.231Z,45.75
2024-04-13T18:38:19.240Z,46.22
2024-04-13T18:44:39.229Z,46.6
2024-04-13T18:51:01.240Z,46.94
2024-04-13T18:57:21.222Z,47.32
2024-04-13T19:03:42.327Z,47.8
2024-04-13T19:10:02.211Z,48.38
2024-04-13T19:16:24.267Z,49.1
2024-04-13T19:22:44.225Z,49.56
2024-04-13T19:29:06.206Z,50.04
2024-04-13T19:35:26.201Z,50.56
2024-04-13T19:41:48.232Z,51.42
2024-04-13T19:48:08.252Z,51.98
2024-04-13T19:54:30.231Z,52.57
2024-04-13T20:00:50.253Z,52.96
2024-04-13T20:23:00.235Z,54.23
2024-04-13T20:29:22.190Z,53.94
2024-04-13T20:35:41.257Z,53.92
2024-04-13T20:42:03.215Z,53.89
2024-04-13T20:48:23.253Z,54.08
2024-04-13T20:54:45.219Z,54.58
2024-04-13T21:01:05.291Z,54.88
2024-04-13T21:07:27.221Z,55.14
2024-04-13T21:13:47.220Z,55.49
2024-04-13T21:20:09.220Z,55.75
2024-04-13T21:26:29.212Z,56.4
2024-04-13T21:32:51.291Z,56.99
2024-04-13T21:39:11.235Z,57.31
2024-04-13T21:45:33.233Z,57.95
2024-04-13T21:51:53.321Z,58.2
2024-04-13T21:58:15.237Z,58.65
2024-04-13T22:21:13.403Z,59.87
2024-04-13T22:27:33.215Z,60.18
2024-04-13T22:33:55.313Z,60.43
2024-04-13T22:40:15.217Z,60.86
2024-04-13T22:46:37.236Z,61.41
2024-04-13T22:52:57.209Z,61.79
2024-04-13T22:59:19.243Z,62.39
2024-04-13T23:05:39.197Z,62.85
2024-04-13T23:12:01.238Z,63.29
2024-04-13T23:18:21.415Z,63.83
2024-04-13T23:24:43.247Z,64.48
2024-04-13T23:31:03.258Z,65.04
2024-04-13T23:37:25.233Z,65.71
2024-04-13T23:43:45.210Z,65.62
2024-04-13T23:50:07.216Z,65.67
2024-04-13T23:56:27.259Z,66.21
